createdAt,value
2022-07-26T00:00:17.937Z,115.70
2022-07-26T00:02:47.535Z,116.37
2022-07-26T00:05:17.194Z,116.20
2022-07-26T00:07:45.644Z,117.53
2022-07-26T00:10:14.241Z,115.97
2022-07-26T00:12:41.886Z,116.67
2022-07-26T00:15:11.912Z,116.30
2022-07-26T00:17:40.228Z,117.07
2022-07-26T00:20:08.439Z,116.67
2022-07-26T00:22:36.088Z,115.77
2022-07-26T00:25:07.487Z,116.60
2022-07-26T00:27:38.536Z,115.77
2022-07-26T00:30:10.329Z,116.47
2022-07-26T00:32:38.264Z,115.30
2022-07-26T00:35:06.453Z,117.17
2022-07-26T00:37:34.129Z,115.37
2022-07-26T00:40:01.839Z,114.87
2022-07-26T00:42:29.622Z,115.70
2022-07-26T00:44:57.145Z,116.30
2022-07-26T00:47:24.611Z,116.43
2022-07-26T00:49:52.297Z,115.87
2022-07-26T00:52:19.794Z,116.67
2022-07-26T00:54:47.457Z,116.10
2022-07-26T00:57:15.371Z,116.80
2022-07-26T00:59:43.306Z,117.13
2022-07-26T01:02:11.517Z,116.67
2022-07-26T01:04:40.206Z,115.83
2022-07-26T01:07:15.070Z,116.57
2022-07-26T01:09:44.395Z,116.17
2022-07-26T01:12:12.697Z,115.77
2022-07-26T01:14:44.293Z,115.70
2022-07-26T01:17:15.351Z,117.80
2022-07-26T01:19:43.373Z,115.53
2022-07-26T01:22:14.446Z,117.17
2022-07-26T01:24:42.833Z,116.77
2022-07-26T01:27:10.287Z,116.67
2022-07-26T01:29:37.779Z,116.47
2022-07-26T01:32:06.387Z,115.73
2022-07-26T01:34:33.988Z,118.17
2022-07-26T01:37:01.514Z,116.47
2022-07-26T01:39:28.978Z,116.17
2022-07-26T01:41:56.781Z,117.17
2022-07-26T01:44:24.455Z,117.67
2022-07-26T01:46:51.878Z,117.97
2022-07-26T01:49:18.935Z,118.07
2022-07-26T01:51:46.443Z,118.07
2022-07-26T01:54:13.967Z,116.00
2022-07-26T01:56:43.227Z,117.67
2022-07-26T01:59:10.686Z,117.60
2022-07-26T02:01:40.232Z,115.70
2022-07-26T02:04:28.931Z,117.00
2022-07-26T02:06:56.479Z,116.90
2022-07-26T02:09:23.995Z,116.97
2022-07-26T02:11:53.376Z,119.00
2022-07-26T02:14:26.102Z,117.27
2022-07-26T02:16:59.794Z,117.57
2022-07-26T02:19:28.964Z,117.57
2022-07-26T02:21:57.481Z,117.77
2022-07-26T02:24:28.567Z,118.07
2022-07-26T02:26:57.769Z,117.80
2022-07-26T02:29:25.767Z,117.07
2022-07-26T02:31:54.185Z,117.97
2022-07-26T02:34:21.871Z,117.23
2022-07-26T02:36:49.495Z,117.10
2022-07-26T02:39:17.367Z,118.70
2022-07-26T02:41:45.105Z,117.97
2022-07-26T02:44:12.371Z,118.57
2022-07-26T02:46:39.982Z,118.10
2022-07-26T02:49:07.539Z,117.50
2022-07-26T02:51:35.029Z,118.47
2022-07-26T02:54:02.484Z,118.77
2022-07-26T02:56:30.130Z,117.43
2022-07-26T02:58:57.641Z,118.20
2022-07-26T03:01:25.304Z,118.47
2022-07-26T03:03:52.961Z,117.90
2022-07-26T03:06:20.573Z,118.13
2022-07-26T03:08:48.981Z,116.97
2022-07-26T03:11:16.337Z,117.73
2022-07-26T03:13:43.806Z,116.33
2022-07-26T03:16:11.359Z,117.70
2022-07-26T03:18:38.918Z,117.00
2022-07-26T03:21:06.565Z,118.40
2022-07-26T03:23:34.904Z,116.27
2022-07-26T03:26:05.265Z,117.37
2022-07-26T03:28:34.254Z,117.20
2022-07-26T03:31:02.532Z,117.33
2022-07-26T03:33:30.527Z,116.93
2022-07-26T03:35:58.107Z,118.63
2022-07-26T03:38:25.764Z,118.43
2022-07-26T03:40:53.462Z,117.27
2022-07-26T03:43:23.257Z,117.90
2022-07-26T03:45:51.542Z,117.93
2022-07-26T03:48:22.335Z,117.47
2022-07-26T03:50:49.449Z,118.50
2022-07-26T03:53:16.940Z,116.37
2022-07-26T03:56:13.409Z,116.40
2022-07-26T03:58:41.146Z,118.10
2022-07-26T04:01:08.201Z,117.47
2022-07-26T04:03:36.048Z,117.47
2022-07-26T04:06:04.902Z,118.67
2022-07-26T04:08:32.862Z,117.97
2022-07-26T04:10:59.962Z,117.23
2022-07-26T04:13:27.522Z,116.63
2022-07-26T04:15:55.000Z,116.90
2022-07-26T04:18:24.783Z,116.27
2022-07-26T04:20:52.657Z,115.57
2022-07-26T04:23:20.126Z,116.50
2022-07-26T04:25:47.694Z,116.83
2022-07-26T04:28:15.308Z,114.87
2022-07-26T04:30:42.895Z,116.60
2022-07-26T04:33:10.562Z,115.00
2022-07-26T04:35:38.042Z,116.70
2022-07-26T04:38:05.564Z,116.37
2022-07-26T04:40:40.566Z,115.87
2022-07-26T04:43:10.112Z,116.87
2022-07-26T04:45:48.096Z,115.40
2022-07-26T04:48:16.007Z,116.97
2022-07-26T04:50:44.078Z,116.77
2022-07-26T04:53:11.558Z,116.20
2022-07-26T04:55:39.439Z,115.50
2022-07-26T04:58:07.426Z,115.90
2022-07-26T05:00:56.387Z,116.30
2022-07-26T05:03:24.998Z,115.97
2022-07-26T05:05:52.454Z,115.73
2022-07-26T05:08:20.034Z,116.17
2022-07-26T05:10:54.575Z,115.87
2022-07-26T05:13:29.763Z,115.67
2022-07-26T05:15:59.578Z,114.53
2022-07-26T05:18:29.349Z,114.07
2022-07-26T05:20:58.955Z,115.57
2022-07-26T05:23:26.399Z,114.83
2022-07-26T05:25:54.015Z,115.60
2022-07-26T05:28:21.421Z,114.77
2022-07-26T05:30:48.984Z,115.13
2022-07-26T05:33:16.846Z,114.80
2022-07-26T05:35:44.422Z,115.90
2022-07-26T05:38:12.009Z,115.30
2022-07-26T05:40:39.679Z,115.20
2022-07-26T05:43:07.304Z,115.63
2022-07-26T05:45:34.876Z,114.20
2022-07-26T05:48:02.384Z,115.10
2022-07-26T05:50:30.013Z,114.57
2022-07-26T05:52:57.524Z,115.07
2022-07-26T05:55:24.978Z,115.17
2022-07-26T05:57:52.475Z,115.07
2022-07-26T06:00:20.817Z,114.27
2022-07-26T06:02:48.350Z,114.80
2022-07-26T06:05:17.402Z,112.70
2022-07-26T06:07:44.920Z,114.00
2022-07-26T06:10:12.370Z,114.40
2022-07-26T06:12:39.466Z,113.37
2022-07-26T06:15:15.105Z,113.50
2022-07-26T06:17:43.301Z,112.87
2022-07-26T06:20:11.378Z,112.90
2022-07-26T06:22:38.810Z,113.57
2022-07-26T06:25:07.144Z,113.63
2022-07-26T06:27:34.729Z,113.03
2022-07-26T06:30:02.163Z,113.67
2022-07-26T06:32:29.614Z,114.20
2022-07-26T06:34:56.603Z,114.43
2022-07-26T06:37:24.158Z,114.80
2022-07-26T06:39:52.168Z,114.30
2022-07-26T06:42:19.808Z,114.20
2022-07-26T06:44:47.378Z,114.60
2022-07-26T06:47:14.912Z,114.17
2022-07-26T06:49:45.260Z,114.77
2022-07-26T06:52:13.459Z,113.80
2022-07-26T06:54:41.373Z,114.10
2022-07-26T06:57:08.938Z,114.90
2022-07-26T06:59:36.588Z,114.30
2022-07-26T07:02:05.491Z,114.03
2022-07-26T07:04:34.008Z,114.57
2022-07-26T07:07:06.446Z,114.77
2022-07-26T07:09:35.654Z,115.20
2022-07-26T07:12:10.010Z,115.90
2022-07-26T07:14:39.435Z,114.60
2022-07-26T07:17:13.058Z,114.27
2022-07-26T07:19:41.372Z,113.80
2022-07-26T07:22:11.709Z,113.40
2022-07-26T07:24:40.617Z,112.70
2022-07-26T07:27:08.845Z,112.10
2022-07-26T07:29:38.385Z,112.77
2022-07-26T07:32:09.037Z,111.90
2022-07-26T07:34:48.200Z,113.20
2022-07-26T07:37:17.446Z,112.00
2022-07-26T07:39:49.991Z,113.17
2022-07-26T07:42:19.155Z,112.70
2022-07-26T07:44:47.041Z,113.90
2022-07-26T07:47:14.776Z,112.23
2022-07-26T07:49:43.611Z,112.37
2022-07-26T07:52:11.167Z,111.77
2022-07-26T07:54:38.629Z,113.17
2022-07-26T07:57:06.178Z,110.63
2022-07-26T07:59:33.698Z,110.20
2022-07-26T08:03:50.362Z,109.97
2022-07-26T08:06:18.565Z,109.37
2022-07-26T08:08:48.540Z,110.17
2022-07-26T08:11:16.221Z,109.57
2022-07-26T08:13:47.821Z,109.93
2022-07-26T08:16:15.894Z,108.57
2022-07-26T08:18:56.064Z,108.33
2022-07-26T08:21:28.206Z,107.57
2022-07-26T08:23:59.331Z,107.97
2022-07-26T08:26:26.935Z,107.87
2022-07-26T08:29:00.170Z,108.27
2022-07-26T08:31:28.850Z,107.20
2022-07-26T08:33:56.728Z,106.80
2022-07-26T08:36:24.940Z,106.17
2022-07-26T08:38:55.692Z,107.10
2022-07-26T08:41:23.192Z,105.93
2022-07-26T08:43:53.238Z,106.60
2022-07-26T08:46:27.787Z,106.07
2022-07-26T08:48:56.818Z,109.70
2022-07-26T08:51:26.436Z,105.67
2022-07-26T08:54:04.757Z,106.30
2022-07-26T08:56:49.072Z,105.87
2022-07-26T08:59:21.407Z,106.57
2022-07-26T09:02:10.632Z,107.67
2022-07-26T09:04:45.084Z,109.30
2022-07-26T09:07:16.063Z,109.87
2022-07-26T09:09:55.855Z,109.97
2022-07-26T09:12:25.591Z,112.20
2022-07-26T09:14:53.885Z,113.23
2022-07-26T09:17:26.411Z,112.57
2022-07-26T09:20:17.792Z,111.40
2022-07-26T09:23:08.450Z,109.20
2022-07-26T09:25:40.324Z,107.90
2022-07-26T09:28:31.045Z,108.40
2022-07-26T09:31:03.105Z,109.07
2022-07-26T09:33:50.108Z,109.27
2022-07-26T09:36:18.524Z,108.97
2022-07-26T09:38:49.889Z,108.07
2022-07-26T09:41:36.692Z,107.40
2022-07-26T09:44:23.863Z,108.03
2022-07-26T09:46:58.548Z,107.17
2022-07-26T09:49:39.968Z,107.07
2022-07-26T09:52:20.848Z,108.90
2022-07-26T09:54:49.631Z,109.23
2022-07-26T09:57:20.469Z,109.60
2022-07-26T09:59:48.435Z,109.77
2022-07-26T10:02:15.867Z,109.30
2022-07-26T10:04:44.292Z,109.77
2022-07-26T10:07:11.971Z,108.30
2022-07-26T10:09:56.754Z,109.13
2022-07-26T10:12:30.715Z,108.67
2022-07-26T10:14:58.487Z,109.67
2022-07-26T10:17:35.179Z,109.87
2022-07-26T10:20:17.401Z,109.40
2022-07-26T10:22:50.216Z,109.70
2022-07-26T10:25:37.442Z,109.57
2022-07-26T10:28:11.789Z,110.40
2022-07-26T10:30:39.721Z,109.30
2022-07-26T10:33:10.729Z,107.60
2022-07-26T10:35:41.052Z,107.67
2022-07-26T10:38:33.908Z,108.70
2022-07-26T10:41:06.061Z,112.60
2022-07-26T10:43:42.245Z,111.60
2022-07-26T10:46:16.221Z,111.33
2022-07-26T10:49:04.868Z,110.97
2022-07-26T10:51:42.060Z,109.37
2022-07-26T10:54:13.749Z,110.30
2022-07-26T10:56:41.624Z,110.30
2022-07-26T10:59:09.376Z,110.77
2022-07-26T11:01:42.820Z,110.97
2022-07-26T11:04:21.503Z,112.07
2022-07-26T11:06:49.440Z,112.00
2022-07-26T11:09:18.804Z,112.67
2022-07-26T11:11:48.777Z,113.03
2022-07-26T11:14:19.136Z,112.47
2022-07-26T11:16:49.896Z,112.77
2022-07-26T11:19:24.573Z,111.80
2022-07-26T11:21:59.232Z,109.20
2022-07-26T11:24:28.279Z,107.37
2022-07-26T11:26:56.399Z,107.20
2022-07-26T11:29:38.246Z,107.90
2022-07-26T11:32:21.670Z,109.87
2022-07-26T11:35:04.185Z,110.30
2022-07-26T11:37:32.105Z,111.77
2022-07-26T11:39:59.518Z,108.87
2022-07-26T11:42:26.973Z,110.10
2022-07-26T11:44:54.831Z,111.67
2022-07-26T11:47:25.624Z,112.00
2022-07-26T11:50:14.019Z,106.47
2022-07-26T11:52:42.296Z,103.37
2022-07-26T11:55:10.156Z,102.80
2022-07-26T11:57:37.715Z,101.63
2022-07-26T12:00:06.500Z,102.10
2022-07-26T12:02:40.488Z,101.30
2022-07-26T12:05:21.179Z,101.50
2022-07-26T12:08:07.055Z,102.07
2022-07-26T12:10:34.614Z,101.87
2022-07-26T12:13:16.516Z,102.73
2022-07-26T12:15:52.572Z,103.83
2022-07-26T12:18:31.489Z,103.80
2022-07-26T12:21:08.926Z,103.97
2022-07-26T12:23:48.072Z,102.37
2022-07-26T12:26:25.821Z,102.00
2022-07-26T12:28:55.349Z,101.60
2022-07-26T12:31:32.083Z,103.60
2022-07-26T12:34:00.076Z,102.80
2022-07-26T12:36:29.958Z,103.80
2022-07-26T12:39:01.392Z,104.83
2022-07-26T12:41:38.670Z,106.00
2022-07-26T12:44:08.281Z,106.77
2022-07-26T12:46:36.787Z,107.07
2022-07-26T12:49:05.279Z,108.70
2022-07-26T12:51:33.394Z,106.97
2022-07-26T12:54:03.307Z,105.50
2022-07-26T12:56:30.816Z,105.30
2022-07-26T12:59:01.256Z,105.10
2022-07-26T13:01:31.503Z,103.77
2022-07-26T13:03:59.589Z,103.60
2022-07-26T13:06:27.099Z,103.20
2022-07-26T13:08:54.675Z,103.63
2022-07-26T13:11:22.189Z,102.87
2022-07-26T13:13:50.916Z,104.90
2022-07-26T13:16:18.846Z,105.97
2022-07-26T13:18:46.412Z,104.70
2022-07-26T13:21:13.864Z,105.00
2022-07-26T13:23:41.405Z,104.67
2022-07-26T13:26:09.465Z,104.97
2022-07-26T13:28:39.788Z,104.77
2022-07-26T13:31:07.408Z,104.77
2022-07-26T13:33:34.567Z,106.07
2022-07-26T13:36:02.100Z,106.27
2022-07-26T13:38:33.499Z,106.63
2022-07-26T13:41:02.569Z,108.50
2022-07-26T13:43:31.355Z,107.97
2022-07-26T13:45:59.118Z,108.30
2022-07-26T13:48:26.602Z,108.37
2022-07-26T13:50:55.372Z,107.40
2022-07-26T13:53:23.962Z,111.83
2022-07-26T13:55:51.646Z,107.07
2022-07-26T13:58:21.388Z,106.30
2022-07-26T14:00:49.626Z,105.00
2022-07-26T14:03:17.368Z,104.50
2022-07-26T14:05:45.252Z,104.67
2022-07-26T14:08:12.813Z,104.83
2022-07-26T14:10:41.272Z,105.97
2022-07-26T14:13:09.263Z,104.70
2022-07-26T14:15:37.145Z,104.80
2022-07-26T14:18:04.923Z,105.00
2022-07-26T14:20:32.481Z,105.30
2022-07-26T14:23:01.152Z,105.47
2022-07-26T14:25:28.677Z,106.67
2022-07-26T14:27:56.266Z,108.83
2022-07-26T14:30:23.898Z,106.97
2022-07-26T14:32:51.886Z,106.47
2022-07-26T14:35:19.399Z,107.10
2022-07-26T14:37:47.354Z,106.77
2022-07-26T14:40:17.386Z,107.70
2022-07-26T14:42:47.983Z,107.00
2022-07-26T14:45:15.900Z,106.20
2022-07-26T14:47:43.833Z,104.67
2022-07-26T14:50:13.638Z,104.50
2022-07-26T14:52:47.078Z,103.77
2022-07-26T14:55:16.809Z,104.43
2022-07-26T14:57:47.147Z,104.77
2022-07-26T15:00:18.907Z,104.77
2022-07-26T15:02:49.318Z,105.00
2022-07-26T15:05:18.014Z,105.40
2022-07-26T15:07:45.682Z,104.80
2022-07-26T15:10:14.066Z,104.30
2022-07-26T15:12:42.639Z,104.20
2022-07-26T15:15:11.293Z,105.17
2022-07-26T15:17:38.739Z,106.17
2022-07-26T15:20:07.279Z,108.03
2022-07-26T15:22:35.474Z,108.60
2022-07-26T15:25:03.204Z,108.67
2022-07-26T15:27:30.719Z,109.57
2022-07-26T15:30:03.492Z,110.33
2022-07-26T15:32:33.661Z,108.30
2022-07-26T15:35:01.699Z,108.27
2022-07-26T15:37:29.168Z,108.57
2022-07-26T15:39:56.595Z,108.07
2022-07-26T15:42:24.167Z,108.77
2022-07-26T15:44:51.981Z,109.40
2022-07-26T15:47:52.220Z,110.20
2022-07-26T15:50:10.945Z,112.23
2022-07-26T15:52:41.380Z,113.67
2022-07-26T15:55:10.297Z,111.37
2022-07-26T15:57:38.402Z,157.70
2022-07-26T16:00:11.601Z,115.10
2022-07-26T16:02:41.280Z,141.17
2022-07-26T16:05:10.068Z,114.40
2022-07-26T16:07:41.466Z,116.57
2022-07-26T16:10:13.742Z,120.03
2022-07-26T16:12:42.763Z,124.90
2022-07-26T16:15:12.198Z,123.30
2022-07-26T16:17:39.944Z,119.50
2022-07-26T16:20:08.112Z,164.77
2022-07-26T16:22:35.936Z,116.10
2022-07-26T16:25:05.817Z,130.27
2022-07-26T16:27:33.333Z,127.90
2022-07-26T16:30:00.848Z,119.50
2022-07-26T16:32:28.577Z,123.10
2022-07-26T16:34:57.395Z,126.57
2022-07-26T16:37:25.024Z,124.67
2022-07-26T16:39:53.291Z,124.27
2022-07-26T16:42:21.393Z,125.47
2022-07-26T16:44:48.880Z,124.07
2022-07-26T16:47:16.405Z,127.43
2022-07-26T16:49:43.524Z,124.40
2022-07-26T16:52:11.257Z,125.00
2022-07-26T16:54:38.825Z,126.27
2022-07-26T16:57:06.332Z,125.67
2022-07-26T16:59:33.859Z,126.60
2022-07-26T17:02:02.865Z,125.27
2022-07-26T17:04:31.121Z,126.17
2022-07-26T17:07:23.475Z,124.20
2022-07-26T17:09:47.185Z,125.20
2022-07-26T17:12:14.357Z,126.30
2022-07-26T17:14:41.877Z,126.70
2022-07-26T17:17:09.324Z,126.60
2022-07-26T17:19:36.813Z,127.10
2022-07-26T17:22:04.853Z,126.17
2022-07-26T17:24:32.377Z,124.33
2022-07-26T17:27:00.845Z,124.27
2022-07-26T17:29:28.498Z,124.90
2022-07-26T17:31:55.985Z,123.23
2022-07-26T17:34:23.630Z,124.43
2022-07-26T17:36:59.161Z,123.27
2022-07-26T17:39:51.492Z,124.07
2022-07-26T17:42:15.803Z,126.80
2022-07-26T17:44:43.393Z,126.37
2022-07-26T17:47:18.042Z,126.23
2022-07-26T17:50:34.842Z,128.27
2022-07-26T17:52:50.914Z,127.47
2022-07-26T17:55:19.357Z,129.67
2022-07-26T17:57:49.771Z,125.17
2022-07-26T18:00:22.882Z,125.83
2022-07-26T18:02:50.548Z,124.87
2022-07-26T18:05:19.453Z,125.00
2022-07-26T18:07:47.024Z,125.37
2022-07-26T18:10:14.697Z,123.40
2022-07-26T18:12:42.810Z,123.20
2022-07-26T18:15:11.061Z,122.87
2022-07-26T18:17:38.918Z,123.30
2022-07-26T18:20:07.726Z,123.87
2022-07-26T18:22:35.215Z,127.33
2022-07-26T18:25:03.791Z,128.47
2022-07-26T18:27:31.853Z,128.47
2022-07-26T18:30:00.561Z,129.70
2022-07-26T18:32:28.064Z,131.80
2022-07-26T18:34:56.117Z,135.60
2022-07-26T18:37:23.338Z,134.57
2022-07-26T18:39:55.495Z,134.77
2022-07-26T18:42:26.054Z,136.07
2022-07-26T18:44:53.059Z,132.23
2022-07-26T18:47:20.598Z,131.17
2022-07-26T18:49:48.018Z,132.23
2022-07-26T18:52:17.865Z,129.97
2022-07-26T18:54:57.047Z,130.47
2022-07-26T18:57:24.944Z,128.53
2022-07-26T18:59:52.503Z,129.10
2022-07-26T19:02:19.634Z,129.30
2022-07-26T19:04:47.460Z,126.67
2022-07-26T19:07:15.016Z,127.00
2022-07-26T19:09:42.511Z,124.93
2022-07-26T19:12:10.290Z,126.20
2022-07-26T19:14:37.809Z,126.80
2022-07-26T19:17:09.632Z,124.00
2022-07-26T19:19:38.432Z,126.37
2022-07-26T19:22:06.015Z,126.43
2022-07-26T19:24:41.926Z,129.07
2022-07-26T19:27:09.513Z,128.43
2022-07-26T19:29:38.315Z,128.27
2022-07-26T19:32:06.600Z,126.40
2022-07-26T19:34:34.225Z,127.97
2022-07-26T19:37:02.323Z,125.90
2022-07-26T19:39:30.831Z,125.50
2022-07-26T19:41:58.121Z,124.47
2022-07-26T19:44:25.545Z,124.73
2022-07-26T19:46:57.450Z,121.57
2022-07-26T19:49:25.595Z,122.30
2022-07-26T19:51:52.745Z,121.50
2022-07-26T19:54:21.202Z,123.93
2022-07-26T19:56:48.285Z,123.03
2022-07-26T19:59:20.937Z,123.87
2022-07-26T20:01:52.594Z,124.40
2022-07-26T20:04:20.476Z,125.97
2022-07-26T20:06:48.852Z,127.47
2022-07-26T20:09:16.291Z,128.87
2022-07-26T20:11:45.221Z,128.37
2022-07-26T20:14:12.732Z,127.57
2022-07-26T20:16:39.974Z,127.17
2022-07-26T20:19:07.088Z,129.53
2022-07-26T20:21:34.753Z,129.30
2022-07-26T20:24:02.332Z,128.67
2022-07-26T20:26:29.358Z,129.10
2022-07-26T20:28:57.982Z,127.37
2022-07-26T20:31:26.399Z,125.70
2022-07-26T20:33:53.945Z,124.50
2022-07-26T20:36:21.562Z,124.30
2022-07-26T20:38:51.606Z,124.33
2022-07-26T20:41:20.311Z,123.90
2022-07-26T20:43:49.237Z,123.10
2022-07-26T20:46:16.861Z,124.80
2022-07-26T20:48:44.803Z,124.20
2022-07-26T20:51:13.453Z,125.03
2022-07-26T20:53:41.538Z,125.17
2022-07-26T20:56:10.259Z,125.50
2022-07-26T20:58:37.966Z,125.40
2022-07-26T21:01:05.812Z,125.87
2022-07-26T21:03:33.308Z,126.20
2022-07-26T21:06:00.918Z,125.47
2022-07-26T21:08:27.934Z,126.07
2022-07-26T21:10:55.997Z,126.10
2022-07-26T21:13:23.618Z,126.67
2022-07-26T21:15:53.216Z,126.27
2022-07-26T21:18:21.649Z,126.80
2022-07-26T21:20:49.197Z,126.50
2022-07-26T21:23:18.502Z,127.20
2022-07-26T21:25:47.702Z,126.97
2022-07-26T21:28:15.347Z,128.30
2022-07-26T21:30:43.222Z,130.37
2022-07-26T21:33:10.718Z,130.53
2022-07-26T21:35:37.846Z,132.07
2022-07-26T21:38:05.391Z,130.33
2022-07-26T21:40:33.134Z,129.57
2022-07-26T21:43:00.546Z,128.77
2022-07-26T21:45:28.098Z,128.57
2022-07-26T21:47:55.612Z,128.17
2022-07-26T21:50:23.648Z,128.30
2022-07-26T21:52:51.154Z,128.70
2022-07-26T21:55:18.878Z,127.87
2022-07-26T21:57:46.385Z,128.57
2022-07-26T22:00:16.076Z,127.00
2022-07-26T22:02:43.681Z,126.00
2022-07-26T22:05:30.216Z,126.10
2022-07-26T22:07:57.794Z,126.47
2022-07-26T22:10:25.299Z,125.77
2022-07-26T22:12:52.774Z,126.27
2022-07-26T22:15:21.711Z,125.47
2022-07-26T22:17:48.768Z,126.00
2022-07-26T22:20:16.619Z,126.27
2022-07-26T22:22:44.588Z,126.00
2022-07-26T22:25:12.286Z,125.83
2022-07-26T22:27:39.776Z,125.57
2022-07-26T22:30:08.064Z,124.60
2022-07-26T22:32:35.831Z,125.00
2022-07-26T22:35:03.440Z,125.77
2022-07-26T22:37:30.925Z,125.73
2022-07-26T22:39:58.363Z,125.03
2022-07-26T22:42:25.874Z,125.57
2022-07-26T22:44:52.872Z,125.50
2022-07-26T22:47:20.380Z,128.40
2022-07-26T22:49:47.791Z,124.73
2022-07-26T22:52:16.407Z,124.53
2022-07-26T22:54:43.901Z,124.77
2022-07-26T22:57:11.487Z,123.90
2022-07-26T22:59:39.026Z,125.20
2022-07-26T23:02:06.056Z,123.97
2022-07-26T23:04:33.515Z,125.27
2022-07-26T23:07:01.780Z,124.70
2022-07-26T23:09:29.037Z,125.60
2022-07-26T23:11:56.605Z,125.57
2022-07-26T23:14:24.170Z,125.40
2022-07-26T23:16:51.960Z,127.07
2022-07-26T23:19:19.485Z,126.00
2022-07-26T23:21:47.022Z,125.57
2022-07-26T23:24:14.485Z,125.70
2022-07-26T23:26:41.653Z,125.77
2022-07-26T23:29:09.201Z,125.70
2022-07-26T23:31:38.161Z,124.87
2022-07-26T23:34:05.729Z,126.43
2022-07-26T23:36:33.233Z,124.07
2022-07-26T23:39:01.402Z,123.87
2022-07-26T23:41:28.539Z,123.70
2022-07-26T23:43:56.300Z,123.80
2022-07-26T23:46:24.796Z,124.63
2022-07-26T23:48:53.185Z,124.40
2022-07-26T23:51:22.733Z,124.57
2022-07-26T23:53:50.754Z,125.37
2022-07-26T23:56:18.869Z,124.80
2022-07-26T23:58:46.591Z,125.47
